Lampman, Canada
Current Conditions -  °F | °C
As of 12:00 AM on Saturday 25 Oct 2014 (Local Time) from CYEN Reporting Station
Clear Clear  
Wind Chill: 29°   Ceiling: Unl
Heat Index: 36°   Visibility: 15mi
Dew Point: 30°   Wind: 8mph
Humidity: 81%   Direction: 250°WSW
Pressure: 30.03"   Gusts: NA
Location:  49.38°N, 102.75°W
Report Text: CYEN 250600Z 25007KT 15SM SKC 02/M01 A3003 RMK SLP185
Loading
Personal Weather Stations






























Interactive Weather Map
Tropical Storm Tracking
New forecast layout! Learn more

10-Day Weather Forecast

Advertisements
Track Severe Weather on mobile